Lehmann Sound — V2EM3 — position and weather

sailwx.info

Track history (hours):
 
Tides and Currents Weather Stations Pressure Air Temp Water Temp Dewpoint Dewpoint Depression Visibility Wind Speed Wind Dir Waves Ship Positions

Lehmann Sound

Last reported at 2017-Mar-26 20:24 UTC. Time now 2017-Mar-26 20:42 UTC.
Position N 54°12' E 009°33'.

Length 90 m; draft 5.9 m.

Type: Cargo ship. MMSI: 305476000.

Date/timePositionNaut miles runAvg speedWind from/ knotsBaromVisibWave heightAir tempDewpointWater temp
2017-Mar-26 20:24N 54°12' E 009°33'29 5.9
2017-Mar-26 15:33N 54°28' E 010°15'9 9.1
2017-Mar-26 14:33N 54°32' E 010°28'9 9.1
2017-Mar-26 13:33N 54°36' E 010°42'9 9.0
2017-Mar-26 12:33N 54°38' E 010°57'9 9.0
2017-Mar-26 11:33N 54°36' E 011°12'9 9.5
2017-Mar-26 10:33N 54°32' E 011°27'10 9.6
2017-Mar-26 09:32N 54°28' E 011°42'9 9.4
2017-Mar-26 08:33N 54°27' E 011°58'8 8.1
2017-Mar-26 07:33N 54°30' E 012°11'9 8.5
2017-Mar-26 06:33N 54°38' E 012°17'9 9.3
2017-Mar-26 05:33N 54°43' E 012°30'46 8.6
2017-Mar-26 00:12N 55°00' E 013°45'6 9.0
2017-Mar-25 23:31N 55°02' E 013°55'8 8.1
2017-Mar-25 22:33N 55°07' E 014°06'10 9.1
2017-Mar-25 21:29N 55°14' E 014°17'8 8.9
2017-Mar-25 20:33N 55°20' E 014°26'9 9.0
2017-Mar-25 19:33N 55°27' E 014°37'9 9.1
2017-Mar-25 18:33N 55°32' E 014°51'9 9.5
2017-Mar-25 17:33N 55°36' E 015°05'9 9.2
2017-Mar-25 16:33N 55°41' E 015°20'9 8.8
2017-Mar-25 15:33N 55°45' E 015°33'9 8.7
2017-Mar-25 14:33N 55°49' E 015°47'9 8.8
2017-Mar-25 13:33N 55°54' E 016°00'9 8.8
2017-Mar-25 12:33N 55°58' E 016°14'9 8.8
2017-Mar-25 11:33N 56°03' E 016°27'9 9.1
2017-Mar-25 10:33N 56°08' E 016°40'9 9.2
2017-Mar-25 09:33N 56°14' E 016°53'296 9.2
2017-Mar-24 01:31N 59°41' E 023°33'22 9.5
2017-Mar-23 23:10N 59°48' E 024°15'9 9.4
2017-Mar-23 22:15N 59°50' E 024°31'33 8.8
2017-Mar-23 18:33N 60°01' E 025°33'9 8.8
2017-Mar-23 17:33N 60°09' E 025°35'9 8.6
2017-Mar-23 16:33N 60°18' E 025°33'  
2017-Mar-17 01:24N 59°15' E 017°36'9 9.1
2017-Mar-17 00:23N 59°23' E 017°27'  
Track history (hours):
 
Tides and Currents Weather Stations Pressure Air Temp Water Temp Dewpoint Dewpoint Depression Visibility Wind Speed Wind Dir Waves Ship Positions

Lehmann Sound

Last reported at 2017-Mar-26 20:24 UTC. Time now 2017-Mar-26 20:42 UTC.
Position N 54°12' E 009°33'.

Length 90 m; draft 5.9 m.

Type: Cargo ship. MMSI: 305476000.

Date/timePositionNaut miles runAvg speedWind from/ knotsBaromVisibWave heightAir tempDewpointWater temp
2017-Mar-26 20:24N 54°12' E 009°33'29 5.9
2017-Mar-26 15:33N 54°28' E 010°15'9 9.1
2017-Mar-26 14:33N 54°32' E 010°28'9 9.1
2017-Mar-26 13:33N 54°36' E 010°42'9 9.0
2017-Mar-26 12:33N 54°38' E 010°57'9 9.0
2017-Mar-26 11:33N 54°36' E 011°12'9 9.5
2017-Mar-26 10:33N 54°32' E 011°27'10 9.6
2017-Mar-26 09:32N 54°28' E 011°42'9 9.4
2017-Mar-26 08:33N 54°27' E 011°58'8 8.1
2017-Mar-26 07:33N 54°30' E 012°11'9 8.5
2017-Mar-26 06:33N 54°38' E 012°17'9 9.3
2017-Mar-26 05:33N 54°43' E 012°30'46 8.6
2017-Mar-26 00:12N 55°00' E 013°45'6 9.0
2017-Mar-25 23:31N 55°02' E 013°55'8 8.1
2017-Mar-25 22:33N 55°07' E 014°06'10 9.1
2017-Mar-25 21:29N 55°14' E 014°17'8 8.9
2017-Mar-25 20:33N 55°20' E 014°26'9 9.0
2017-Mar-25 19:33N 55°27' E 014°37'9 9.1
2017-Mar-25 18:33N 55°32' E 014°51'9 9.5
2017-Mar-25 17:33N 55°36' E 015°05'9 9.2
2017-Mar-25 16:33N 55°41' E 015°20'9 8.8
2017-Mar-25 15:33N 55°45' E 015°33'9 8.7
2017-Mar-25 14:33N 55°49' E 015°47'9 8.8
2017-Mar-25 13:33N 55°54' E 016°00'9 8.8
2017-Mar-25 12:33N 55°58' E 016°14'9 8.8
2017-Mar-25 11:33N 56°03' E 016°27'9 9.1
2017-Mar-25 10:33N 56°08' E 016°40'9 9.2
2017-Mar-25 09:33N 56°14' E 016°53'296 9.2
2017-Mar-24 01:31N 59°41' E 023°33'22 9.5
2017-Mar-23 23:10N 59°48' E 024°15'9 9.4
2017-Mar-23 22:15N 59°50' E 024°31'33 8.8
2017-Mar-23 18:33N 60°01' E 025°33'9 8.8
2017-Mar-23 17:33N 60°09' E 025°35'9 8.6
2017-Mar-23 16:33N 60°18' E 025°33'  
2017-Mar-17 01:24N 59°15' E 017°36'9 9.1
2017-Mar-17 00:23N 59°23' E 017°27'  

Dump ship's entire track history